sensor_id;sensor_type;location;lat;lon;timestamp;P1;durP1;ratioP1;P2;durP2;ratioP2
68577;SDS011;61668;45.388;11.784;2023-05-01T00:00:54;11.40;;;5.70;;
68577;SDS011;61668;45.388;11.784;2023-05-01T00:03:20;11.70;;;5.30;;
68577;SDS011;61668;45.388;11.784;2023-05-01T00:05:45;11.00;;;4.90;;
68577;SDS011;61668;45.388;11.784;2023-05-01T00:08:12;12.60;;;4.80;;
68577;SDS011;61668;45.388;11.784;2023-05-01T00:10:38;11.50;;;4.30;;
68577;SDS011;61668;45.388;11.784;2023-05-01T00:13:04;9.90;;;4.50;;
68577;SDS011;61668;45.388;11.784;2023-05-01T00:15:31;12.60;;;4.40;;
68577;SDS011;61668;45.388;11.784;2023-05-01T00:17:58;9.90;;;4.00;;
68577;SDS011;61668;45.388;11.784;2023-05-01T00:20:28;10.60;;;4.20;;
68577;SDS011;61668;45.388;11.784;2023-05-01T00:22:54;10.20;;;4.00;;
68577;SDS011;61668;45.388;11.784;2023-05-01T00:25:20;9.60;;;4.00;;
68577;SDS011;61668;45.388;11.784;2023-05-01T00:27:46;9.10;;;3.80;;
68577;SDS011;61668;45.388;11.784;2023-05-01T00:30:13;10.40;;;3.40;;
68577;SDS011;61668;45.388;11.784;2023-05-01T00:32:38;8.40;;;3.30;;
68577;SDS011;61668;45.388;11.784;2023-05-01T00:35:04;9.70;;;3.80;;
68577;SDS011;61668;45.388;11.784;2023-05-01T00:37:30;8.00;;;3.10;;
68577;SDS011;61668;45.388;11.784;2023-05-01T00:39:56;9.10;;;3.10;;
68577;SDS011;61668;45.388;11.784;2023-05-01T00:42:22;8.40;;;3.30;;
68577;SDS011;61668;45.388;11.784;2023-05-01T00:44:48;8.10;;;3.60;;
68577;SDS011;61668;45.388;11.784;2023-05-01T00:47:13;8.90;;;3.50;;
68577;SDS011;61668;45.388;11.784;2023-05-01T00:49:41;8.60;;;3.30;;
68577;SDS011;61668;45.388;11.784;2023-05-01T00:52:07;9.20;;;3.00;;
68577;SDS011;61668;45.388;11.784;2023-05-01T00:54:35;8.40;;;2.90;;
68577;SDS011;61668;45.388;11.784;2023-05-01T00:57:01;8.60;;;2.50;;
68577;SDS011;61668;45.388;11.784;2023-05-01T00:59:27;8.10;;;2.80;;
68577;SDS011;61668;45.388;11.784;2023-05-01T01:01:53;8.70;;;3.10;;
68577;SDS011;61668;45.388;11.784;2023-05-01T01:04:20;9.80;;;2.40;;
68577;SDS011;61668;45.388;11.784;2023-05-01T01:07:08;8.70;;;2.80;;
68577;SDS011;61668;45.388;11.784;2023-05-01T01:15:22;8.10;;;2.80;;
68577;SDS011;61668;45.388;11.784;2023-05-01T01:18:08;7.50;;;2.30;;
68577;SDS011;61668;45.388;11.784;2023-05-01T01:21:12;8.30;;;2.50;;
68577;SDS011;61668;45.388;11.784;2023-05-01T01:36:33;8.70;;;2.80;;
68577;SDS011;61668;45.388;11.784;2023-05-01T01:41:53;8.80;;;3.00;;
68577;SDS011;61668;45.388;11.784;2023-05-01T01:44:29;8.60;;;2.90;;
68577;SDS011;61668;45.388;11.784;2023-05-01T01:47:00;9.80;;;3.50;;
68577;SDS011;61668;45.388;11.784;2023-05-01T01:49:29;8.70;;;3.20;;
68577;SDS011;61668;45.388;11.784;2023-05-01T01:51:57;8.60;;;3.10;;
68577;SDS011;61668;45.388;11.784;2023-05-01T01:54:34;8.80;;;3.20;;
68577;SDS011;61668;45.388;11.784;2023-05-01T01:57:03;8.90;;;2.90;;
68577;SDS011;61668;45.388;11.784;2023-05-01T01:59:32;8.60;;;3.40;;
68577;SDS011;61668;45.388;11.784;2023-05-01T02:01:59;9.20;;;3.50;;
68577;SDS011;61668;45.388;11.784;2023-05-01T02:04:27;9.00;;;3.40;;
68577;SDS011;61668;45.388;11.784;2023-05-01T02:06:57;8.30;;;3.10;;
68577;SDS011;61668;45.388;11.784;2023-05-01T02:09:27;8.80;;;3.40;;
68577;SDS011;61668;45.388;11.784;2023-05-01T02:11:54;8.60;;;3.50;;
68577;SDS011;61668;45.388;11.784;2023-05-01T02:14:22;8.80;;;3.20;;
68577;SDS011;61668;45.388;11.784;2023-05-01T02:16:51;10.90;;;4.20;;
68577;SDS011;61668;45.388;11.784;2023-05-01T02:19:18;9.60;;;3.40;;
68577;SDS011;61668;45.388;11.784;2023-05-01T02:21:45;9.00;;;3.50;;
68577;SDS011;61668;45.388;11.784;2023-05-01T02:24:11;9.50;;;3.80;;
68577;SDS011;61668;45.388;11.784;2023-05-01T02:26:41;10.10;;;3.40;;
68577;SDS011;61668;45.388;11.784;2023-05-01T02:29:09;10.10;;;3.40;;
68577;SDS011;61668;45.388;11.784;2023-05-01T02:31:35;9.90;;;2.50;;
68577;SDS011;61668;45.388;11.784;2023-05-01T02:34:01;12.20;;;3.40;;
68577;SDS011;61668;45.388;11.784;2023-05-01T02:36:27;9.10;;;3.60;;
68577;SDS011;61668;45.388;11.784;2023-05-01T02:38:53;9.80;;;3.20;;
68577;SDS011;61668;45.388;11.784;2023-05-01T02:41:21;8.60;;;3.10;;
68577;SDS011;61668;45.388;11.784;2023-05-01T02:43:54;8.50;;;2.80;;
68577;SDS011;61668;45.388;11.784;2023-05-01T02:46:24;9.30;;;2.80;;
68577;SDS011;61668;45.388;11.784;2023-05-01T02:48:52;9.30;;;4.00;;
68577;SDS011;61668;45.388;11.784;2023-05-01T02:51:20;8.10;;;2.70;;
68577;SDS011;61668;45.388;11.784;2023-05-01T02:53:48;8.10;;;2.70;;
68577;SDS011;61668;45.388;11.784;2023-05-01T02:56:15;8.70;;;3.60;;
68577;SDS011;61668;45.388;11.784;2023-05-01T02:58:41;8.80;;;2.60;;
68577;SDS011;61668;45.388;11.784;2023-05-01T03:01:06;8.60;;;2.90;;
68577;SDS011;61668;45.388;11.784;2023-05-01T03:03:32;8.80;;;2.40;;
68577;SDS011;61668;45.388;11.784;2023-05-01T03:05:57;9.70;;;2.30;;
68577;SDS011;61668;45.388;11.784;2023-05-01T03:08:24;8.40;;;2.50;;
68577;SDS011;61668;45.388;11.784;2023-05-01T03:10:49;8.50;;;2.70;;
68577;SDS011;61668;45.388;11.784;2023-05-01T03:13:15;7.80;;;2.50;;
68577;SDS011;61668;45.388;11.784;2023-05-01T03:15:41;8.30;;;2.40;;
68577;SDS011;61668;45.388;11.784;2023-05-01T03:18:07;9.80;;;2.40;;
68577;SDS011;61668;45.388;11.784;2023-05-01T03:20:34;9.20;;;2.80;;
68577;SDS011;61668;45.388;11.784;2023-05-01T03:22:59;9.80;;;3.20;;
68577;SDS011;61668;45.388;11.784;2023-05-01T03:25:25;7.50;;;2.60;;
68577;SDS011;61668;45.388;11.784;2023-05-01T03:27:53;7.80;;;2.50;;
68577;SDS011;61668;45.388;11.784;2023-05-01T03:30:18;8.20;;;2.10;;
68577;SDS011;61668;45.388;11.784;2023-05-01T03:32:44;8.20;;;2.60;;
68577;SDS011;61668;45.388;11.784;2023-05-01T03:35:10;8.20;;;2.10;;
68577;SDS011;61668;45.388;11.784;2023-05-01T03:37:36;9.50;;;2.60;;
68577;SDS011;61668;45.388;11.784;2023-05-01T03:40:02;8.90;;;2.60;;
68577;SDS011;61668;45.388;11.784;2023-05-01T03:42:28;7.30;;;2.20;;
68577;SDS011;61668;45.388;11.784;2023-05-01T03:44:54;6.80;;;2.10;;
68577;SDS011;61668;45.388;11.784;2023-05-01T03:47:19;7.60;;;2.70;;
68577;SDS011;61668;45.388;11.784;2023-05-01T03:49:45;9.00;;;2.30;;
68577;SDS011;61668;45.388;11.784;2023-05-01T03:52:11;11.70;;;2.60;;
68577;SDS011;61668;45.388;11.784;2023-05-01T03:54:37;8.10;;;2.10;;
68577;SDS011;61668;45.388;11.784;2023-05-01T03:57:03;8.90;;;2.20;;
68577;SDS011;61668;45.388;11.784;2023-05-01T03:59:29;8.10;;;2.40;;
68577;SDS011;61668;45.388;11.784;2023-05-01T04:01:55;8.40;;;1.90;;
68577;SDS011;61668;45.388;11.784;2023-05-01T04:04:21;7.70;;;2.20;;
68577;SDS011;61668;45.388;11.784;2023-05-01T04:06:46;8.10;;;1.90;;
68577;SDS011;61668;45.388;11.784;2023-05-01T04:09:15;9.40;;;2.30;;
68577;SDS011;61668;45.388;11.784;2023-05-01T04:11:41;10.00;;;2.50;;
68577;SDS011;61668;45.388;11.784;2023-05-01T04:14:07;7.60;;;2.40;;
68577;SDS011;61668;45.388;11.784;2023-05-01T04:16:33;8.70;;;2.40;;
68577;SDS011;61668;45.388;11.784;2023-05-01T04:18:58;10.80;;;3.50;;
68577;SDS011;61668;45.388;11.784;2023-05-01T04:21:24;8.10;;;2.10;;
68577;SDS011;61668;45.388;11.784;2023-05-01T04:23:50;10.60;;;2.80;;
68577;SDS011;61668;45.388;11.784;2023-05-01T04:26:16;8.20;;;2.80;;
68577;SDS011;61668;45.388;11.784;2023-05-01T04:28:42;10.70;;;2.90;;
68577;SDS011;61668;45.388;11.784;2023-05-01T04:31:07;8.40;;;2.50;;
68577;SDS011;61668;45.388;11.784;2023-05-01T04:33:34;9.00;;;2.90;;
68577;SDS011;61668;45.388;11.784;2023-05-01T04:35:59;9.20;;;3.00;;
68577;SDS011;61668;45.388;11.784;2023-05-01T04:38:25;8.80;;;2.90;;
68577;SDS011;61668;45.388;11.784;2023-05-01T04:40:51;9.10;;;3.10;;
68577;SDS011;61668;45.388;11.784;2023-05-01T04:43:16;8.70;;;2.50;;
68577;SDS011;61668;45.388;11.784;2023-05-01T04:45:42;9.60;;;2.90;;
68577;SDS011;61668;45.388;11.784;2023-05-01T04:48:08;9.70;;;2.80;;
68577;SDS011;61668;45.388;11.784;2023-05-01T04:50:34;8.30;;;2.50;;
68577;SDS011;61668;45.388;11.784;2023-05-01T04:52:59;8.70;;;2.90;;
68577;SDS011;61668;45.388;11.784;2023-05-01T04:55:25;10.10;;;2.80;;
68577;SDS011;61668;45.388;11.784;2023-05-01T04:57:51;8.10;;;2.70;;
68577;SDS011;61668;45.388;11.784;2023-05-01T05:00:17;8.60;;;2.70;;
68577;SDS011;61668;45.388;11.784;2023-05-01T05:02:44;9.30;;;2.80;;
68577;SDS011;61668;45.388;11.784;2023-05-01T05:05:10;9.20;;;2.50;;
68577;SDS011;61668;45.388;11.784;2023-05-01T05:07:37;8.10;;;2.70;;
68577;SDS011;61668;45.388;11.784;2023-05-01T05:10:02;8.80;;;2.70;;
68577;SDS011;61668;45.388;11.784;2023-05-01T05:12:28;7.60;;;2.30;;
68577;SDS011;61668;45.388;11.784;2023-05-01T05:14:54;8.70;;;2.60;;
68577;SDS011;61668;45.388;11.784;2023-05-01T05:17:20;8.50;;;2.60;;
68577;SDS011;61668;45.388;11.784;2023-05-01T05:19:46;9.60;;;2.70;;
68577;SDS011;61668;45.388;11.784;2023-05-01T05:22:11;8.60;;;2.50;;
68577;SDS011;61668;45.388;11.784;2023-05-01T05:24:37;7.60;;;2.30;;
68577;SDS011;61668;45.388;11.784;2023-05-01T05:27:03;8.90;;;3.10;;
68577;SDS011;61668;45.388;11.784;2023-05-01T05:29:30;7.90;;;2.80;;
68577;SDS011;61668;45.388;11.784;2023-05-01T05:31:57;9.20;;;2.20;;
68577;SDS011;61668;45.388;11.784;2023-05-01T05:34:24;11.50;;;2.50;;
68577;SDS011;61668;45.388;11.784;2023-05-01T05:36:50;8.50;;;2.60;;
68577;SDS011;61668;45.388;11.784;2023-05-01T05:39:16;7.80;;;2.00;;
68577;SDS011;61668;45.388;11.784;2023-05-01T05:41:42;7.60;;;2.00;;
68577;SDS011;61668;45.388;11.784;2023-05-01T05:44:07;7.20;;;1.90;;
68577;SDS011;61668;45.388;11.784;2023-05-01T05:46:33;7.90;;;2.20;;
68577;SDS011;61668;45.388;11.784;2023-05-01T05:48:58;7.80;;;2.50;;
68577;SDS011;61668;45.388;11.784;2023-05-01T05:51:24;7.90;;;2.30;;
68577;SDS011;61668;45.388;11.784;2023-05-01T05:53:50;7.00;;;2.00;;
68577;SDS011;61668;45.388;11.784;2023-05-01T05:56:16;9.60;;;2.40;;
68577;SDS011;61668;45.388;11.784;2023-05-01T05:58:42;8.00;;;2.40;;
68577;SDS011;61668;45.388;11.784;2023-05-01T06:01:08;8.50;;;2.60;;
68577;SDS011;61668;45.388;11.784;2023-05-01T06:03:34;8.40;;;2.90;;
68577;SDS011;61668;45.388;11.784;2023-05-01T06:06:01;7.70;;;2.70;;
68577;SDS011;61668;45.388;11.784;2023-05-01T06:08:27;7.30;;;2.30;;
68577;SDS011;61668;45.388;11.784;2023-05-01T06:10:53;8.70;;;2.80;;
68577;SDS011;61668;45.388;11.784;2023-05-01T06:13:19;8.20;;;2.90;;
68577;SDS011;61668;45.388;11.784;2023-05-01T06:15:44;7.60;;;2.60;;
68577;SDS011;61668;45.388;11.784;2023-05-01T06:18:10;8.60;;;2.30;;
68577;SDS011;61668;45.388;11.784;2023-05-01T06:20:36;7.40;;;2.30;;
68577;SDS011;61668;45.388;11.784;2023-05-01T06:23:03;9.60;;;2.40;;
68577;SDS011;61668;45.388;11.784;2023-05-01T06:25:28;7.90;;;2.40;;
68577;SDS011;61668;45.388;11.784;2023-05-01T06:27:55;7.60;;;2.00;;
68577;SDS011;61668;45.388;11.784;2023-05-01T06:30:20;7.90;;;1.80;;
68577;SDS011;61668;45.388;11.784;2023-05-01T06:32:46;9.50;;;2.50;;
68577;SDS011;61668;45.388;11.784;2023-05-01T06:35:13;7.80;;;2.50;;
68577;SDS011;61668;45.388;11.784;2023-05-01T06:37:38;8.60;;;3.30;;
68577;SDS011;61668;45.388;11.784;2023-05-01T06:40:09;9.00;;;2.60;;
68577;SDS011;61668;45.388;11.784;2023-05-01T06:42:39;8.00;;;1.90;;
68577;SDS011;61668;45.388;11.784;2023-05-01T06:45:06;7.40;;;2.20;;
68577;SDS011;61668;45.388;11.784;2023-05-01T06:47:32;7.30;;;2.30;;
68577;SDS011;61668;45.388;11.784;2023-05-01T06:49:58;7.90;;;2.40;;
68577;SDS011;61668;45.388;11.784;2023-05-01T06:52:24;7.50;;;2.60;;
68577;SDS011;61668;45.388;11.784;2023-05-01T06:54:50;8.40;;;2.50;;
68577;SDS011;61668;45.388;11.784;2023-05-01T06:57:15;7.70;;;2.60;;
68577;SDS011;61668;45.388;11.784;2023-05-01T06:59:41;8.00;;;2.60;;
68577;SDS011;61668;45.388;11.784;2023-05-01T07:02:07;9.40;;;3.40;;
68577;SDS011;61668;45.388;11.784;2023-05-01T07:04:32;8.20;;;2.80;;
68577;SDS011;61668;45.388;11.784;2023-05-01T07:06:58;8.60;;;2.50;;
68577;SDS011;61668;45.388;11.784;2023-05-01T07:09:25;8.70;;;3.10;;
68577;SDS011;61668;45.388;11.784;2023-05-01T07:11:50;9.90;;;3.40;;
68577;SDS011;61668;45.388;11.784;2023-05-01T07:14:17;8.20;;;3.00;;
68577;SDS011;61668;45.388;11.784;2023-05-01T07:16:43;7.60;;;2.50;;
68577;SDS011;61668;45.388;11.784;2023-05-01T07:19:09;8.30;;;2.70;;
68577;SDS011;61668;45.388;11.784;2023-05-01T07:21:38;8.00;;;2.10;;
68577;SDS011;61668;45.388;11.784;2023-05-01T07:24:05;7.50;;;3.00;;
68577;SDS011;61668;45.388;11.784;2023-05-01T07:26:31;9.80;;;2.40;;
68577;SDS011;61668;45.388;11.784;2023-05-01T07:28:56;7.60;;;2.00;;
68577;SDS011;61668;45.388;11.784;2023-05-01T07:31:22;7.60;;;2.30;;
68577;SDS011;61668;45.388;11.784;2023-05-01T07:33:48;8.40;;;2.00;;
68577;SDS011;61668;45.388;11.784;2023-05-01T07:36:14;7.10;;;1.60;;
68577;SDS011;61668;45.388;11.784;2023-05-01T07:38:40;7.70;;;2.60;;
68577;SDS011;61668;45.388;11.784;2023-05-01T07:41:06;8.30;;;2.20;;
68577;SDS011;61668;45.388;11.784;2023-05-01T07:43:32;9.10;;;2.30;;
68577;SDS011;61668;45.388;11.784;2023-05-01T07:45:59;7.00;;;1.60;;
68577;SDS011;61668;45.388;11.784;2023-05-01T07:48:27;6.90;;;1.80;;
68577;SDS011;61668;45.388;11.784;2023-05-01T07:50:53;7.00;;;1.80;;
68577;SDS011;61668;45.388;11.784;2023-05-01T07:53:20;8.20;;;2.30;;
68577;SDS011;61668;45.388;11.784;2023-05-01T07:55:47;8.80;;;2.70;;
68577;SDS011;61668;45.388;11.784;2023-05-01T07:58:13;7.60;;;1.70;;
68577;SDS011;61668;45.388;11.784;2023-05-01T08:00:39;7.00;;;1.60;;
68577;SDS011;61668;45.388;11.784;2023-05-01T08:03:05;6.90;;;2.00;;
68577;SDS011;61668;45.388;11.784;2023-05-01T08:05:31;7.30;;;1.90;;
68577;SDS011;61668;45.388;11.784;2023-05-01T08:07:57;8.30;;;2.00;;
68577;SDS011;61668;45.388;11.784;2023-05-01T08:10:22;6.60;;;1.50;;
68577;SDS011;61668;45.388;11.784;2023-05-01T08:12:48;6.60;;;1.40;;
68577;SDS011;61668;45.388;11.784;2023-05-01T08:15:14;7.90;;;2.10;;
68577;SDS011;61668;45.388;11.784;2023-05-01T08:17:39;8.60;;;2.30;;
68577;SDS011;61668;45.388;11.784;2023-05-01T08:20:06;8.20;;;1.70;;
68577;SDS011;61668;45.388;11.784;2023-05-01T08:22:32;6.50;;;2.10;;
68577;SDS011;61668;45.388;11.784;2023-05-01T08:24:58;7.00;;;1.50;;
68577;SDS011;61668;45.388;11.784;2023-05-01T08:27:24;8.30;;;2.20;;
68577;SDS011;61668;45.388;11.784;2023-05-01T08:29:50;6.60;;;1.70;;
68577;SDS011;61668;45.388;11.784;2023-05-01T08:32:17;7.30;;;1.50;;
68577;SDS011;61668;45.388;11.784;2023-05-01T08:34:43;8.30;;;2.20;;
68577;SDS011;61668;45.388;11.784;2023-05-01T08:37:08;8.00;;;1.90;;
68577;SDS011;61668;45.388;11.784;2023-05-01T08:39:34;7.10;;;1.70;;
68577;SDS011;61668;45.388;11.784;2023-05-01T08:42:01;7.50;;;1.80;;
68577;SDS011;61668;45.388;11.784;2023-05-01T08:44:29;6.10;;;1.00;;
68577;SDS011;61668;45.388;11.784;2023-05-01T08:47:16;6.90;;;1.70;;
68577;SDS011;61668;45.388;11.784;2023-05-01T08:49:43;6.70;;;1.30;;
68577;SDS011;61668;45.388;11.784;2023-05-01T08:52:11;7.10;;;1.60;;
68577;SDS011;61668;45.388;11.784;2023-05-01T08:54:41;6.60;;;1.70;;
68577;SDS011;61668;45.388;11.784;2023-05-01T08:57:10;6.70;;;1.90;;
68577;SDS011;61668;45.388;11.784;2023-05-01T08:59:38;6.90;;;1.60;;
68577;SDS011;61668;45.388;11.784;2023-05-01T09:02:06;6.40;;;1.50;;
68577;SDS011;61668;45.388;11.784;2023-05-01T09:04:38;7.90;;;1.80;;
68577;SDS011;61668;45.388;11.784;2023-05-01T09:07:05;6.40;;;1.30;;
68577;SDS011;61668;45.388;11.784;2023-05-01T09:09:32;6.40;;;1.40;;
68577;SDS011;61668;45.388;11.784;2023-05-01T09:12:17;8.20;;;1.80;;
68577;SDS011;61668;45.388;11.784;2023-05-01T09:14:51;6.40;;;1.40;;
68577;SDS011;61668;45.388;11.784;2023-05-01T09:17:17;7.20;;;2.20;;
68577;SDS011;61668;45.388;11.784;2023-05-01T09:19:44;7.40;;;1.90;;
68577;SDS011;61668;45.388;11.784;2023-05-01T09:22:11;7.90;;;2.50;;
68577;SDS011;61668;45.388;11.784;2023-05-01T09:24:36;6.80;;;2.00;;
68577;SDS011;61668;45.388;11.784;2023-05-01T09:27:02;6.50;;;1.30;;
68577;SDS011;61668;45.388;11.784;2023-05-01T09:29:45;8.00;;;1.90;;
68577;SDS011;61668;45.388;11.784;2023-05-01T09:34:48;6.30;;;1.40;;
68577;SDS011;61668;45.388;11.784;2023-05-01T09:39:40;7.40;;;1.30;;
68577;SDS011;61668;45.388;11.784;2023-05-01T09:42:06;8.20;;;2.00;;
68577;SDS011;61668;45.388;11.784;2023-05-01T09:44:39;8.40;;;1.50;;
68577;SDS011;61668;45.388;11.784;2023-05-01T09:47:09;8.40;;;1.60;;
68577;SDS011;61668;45.388;11.784;2023-05-01T09:49:45;6.80;;;1.10;;
68577;SDS011;61668;45.388;11.784;2023-05-01T09:52:12;7.10;;;1.70;;
68577;SDS011;61668;45.388;11.784;2023-05-01T09:54:38;6.10;;;1.40;;
68577;SDS011;61668;45.388;11.784;2023-05-01T09:57:05;6.70;;;1.90;;
68577;SDS011;61668;45.388;11.784;2023-05-01T09:59:31;6.60;;;1.50;;
68577;SDS011;61668;45.388;11.784;2023-05-01T10:01:59;6.40;;;1.90;;
68577;SDS011;61668;45.388;11.784;2023-05-01T10:04:44;7.20;;;1.80;;
68577;SDS011;61668;45.388;11.784;2023-05-01T10:07:11;9.20;;;2.20;;
68577;SDS011;61668;45.388;11.784;2023-05-01T10:09:38;5.60;;;1.40;;
68577;SDS011;61668;45.388;11.784;2023-05-01T10:12:04;8.90;;;2.10;;
68577;SDS011;61668;45.388;11.784;2023-05-01T10:14:30;7.70;;;2.10;;
68577;SDS011;61668;45.388;11.784;2023-05-01T10:17:16;7.10;;;1.90;;
68577;SDS011;61668;45.388;11.784;2023-05-01T10:19:46;6.70;;;1.90;;
68577;SDS011;61668;45.388;11.784;2023-05-01T10:22:13;7.50;;;2.80;;
68577;SDS011;61668;45.388;11.784;2023-05-01T10:24:41;6.50;;;1.60;;
68577;SDS011;61668;45.388;11.784;2023-05-01T10:27:10;7.00;;;2.20;;
68577;SDS011;61668;45.388;11.784;2023-05-01T10:29:39;8.20;;;1.80;;
68577;SDS011;61668;45.388;11.784;2023-05-01T10:32:07;7.50;;;2.40;;
68577;SDS011;61668;45.388;11.784;2023-05-01T10:34:41;7.20;;;1.60;;
68577;SDS011;61668;45.388;11.784;2023-05-01T10:37:12;6.90;;;1.60;;
68577;SDS011;61668;45.388;11.784;2023-05-01T10:39:42;6.70;;;1.70;;
68577;SDS011;61668;45.388;11.784;2023-05-01T10:42:09;8.10;;;2.60;;
68577;SDS011;61668;45.388;11.784;2023-05-01T10:44:38;7.30;;;2.00;;
68577;SDS011;61668;45.388;11.784;2023-05-01T10:50:06;9.10;;;3.30;;
68577;SDS011;61668;45.388;11.784;2023-05-01T10:55:38;7.10;;;1.50;;
68577;SDS011;61668;45.388;11.784;2023-05-01T10:58:08;6.50;;;1.10;;
68577;SDS011;61668;45.388;11.784;2023-05-01T11:00:34;6.40;;;1.60;;
68577;SDS011;61668;45.388;11.784;2023-05-01T11:08:32;9.40;;;4.20;;
68577;SDS011;61668;45.388;11.784;2023-05-01T11:14:13;7.90;;;2.90;;
68577;SDS011;61668;45.388;11.784;2023-05-01T11:16:39;22.40;;;10.50;;
68577;SDS011;61668;45.388;11.784;2023-05-01T11:21:38;12.50;;;6.00;;
68577;SDS011;61668;45.388;11.784;2023-05-01T11:24:06;11.30;;;4.50;;
68577;SDS011;61668;45.388;11.784;2023-05-01T11:26:39;14.10;;;6.40;;
68577;SDS011;61668;45.388;11.784;2023-05-01T11:29:07;8.10;;;1.90;;
68577;SDS011;61668;45.388;11.784;2023-05-01T11:31:38;9.00;;;3.00;;
68577;SDS011;61668;45.388;11.784;2023-05-01T11:34:04;7.50;;;2.00;;
68577;SDS011;61668;45.388;11.784;2023-05-01T11:36:49;7.20;;;1.90;;
68577;SDS011;61668;45.388;11.784;2023-05-01T11:39:17;7.60;;;2.20;;
68577;SDS011;61668;45.388;11.784;2023-05-01T11:41:44;6.50;;;1.60;;
68577;SDS011;61668;45.388;11.784;2023-05-01T11:44:11;13.00;;;4.60;;
68577;SDS011;61668;45.388;11.784;2023-05-01T11:46:41;9.50;;;3.80;;
68577;SDS011;61668;45.388;11.784;2023-05-01T11:49:07;9.20;;;4.40;;
68577;SDS011;61668;45.388;11.784;2023-05-01T11:51:33;8.10;;;2.60;;
68577;SDS011;61668;45.388;11.784;2023-05-01T11:54:06;6.10;;;1.00;;
68577;SDS011;61668;45.388;11.784;2023-05-01T11:56:35;7.20;;;1.60;;
68577;SDS011;61668;45.388;11.784;2023-05-01T11:59:15;6.40;;;1.40;;
68577;SDS011;61668;45.388;11.784;2023-05-01T12:01:45;7.80;;;1.60;;
68577;SDS011;61668;45.388;11.784;2023-05-01T12:04:12;6.40;;;1.80;;
68577;SDS011;61668;45.388;11.784;2023-05-01T12:06:44;7.10;;;2.30;;
68577;SDS011;61668;45.388;11.784;2023-05-01T12:09:19;6.40;;;1.40;;
68577;SDS011;61668;45.388;11.784;2023-05-01T12:11:51;7.10;;;1.10;;
68577;SDS011;61668;45.388;11.784;2023-05-01T12:14:19;5.20;;;1.20;;
68577;SDS011;61668;45.388;11.784;2023-05-01T12:16:46;6.90;;;1.30;;
68577;SDS011;61668;45.388;11.784;2023-05-01T12:19:13;9.40;;;1.20;;
68577;SDS011;61668;45.388;11.784;2023-05-01T12:21:40;6.40;;;0.90;;
68577;SDS011;61668;45.388;11.784;2023-05-01T12:24:14;6.90;;;1.20;;
68577;SDS011;61668;45.388;11.784;2023-05-01T12:26:44;6.30;;;1.00;;
68577;SDS011;61668;45.388;11.784;2023-05-01T12:29:10;5.90;;;0.80;;
68577;SDS011;61668;45.388;11.784;2023-05-01T12:31:47;7.60;;;1.20;;
68577;SDS011;61668;45.388;11.784;2023-05-01T12:34:14;6.40;;;1.50;;
68577;SDS011;61668;45.388;11.784;2023-05-01T12:36:39;5.90;;;1.30;;
68577;SDS011;61668;45.388;11.784;2023-05-01T12:39:10;6.40;;;1.00;;
68577;SDS011;61668;45.388;11.784;2023-05-01T12:41:42;6.70;;;0.90;;
68577;SDS011;61668;45.388;11.784;2023-05-01T12:44:26;6.10;;;0.90;;
68577;SDS011;61668;45.388;11.784;2023-05-01T12:47:03;6.00;;;1.00;;
68577;SDS011;61668;45.388;11.784;2023-05-01T12:49:34;5.90;;;1.00;;
68577;SDS011;61668;45.388;11.784;2023-05-01T12:52:06;5.60;;;1.00;;
68577;SDS011;61668;45.388;11.784;2023-05-01T12:54:34;6.00;;;1.10;;
68577;SDS011;61668;45.388;11.784;2023-05-01T12:57:09;5.80;;;1.00;;
68577;SDS011;61668;45.388;11.784;2023-05-01T12:59:39;6.90;;;1.50;;
68577;SDS011;61668;45.388;11.784;2023-05-01T13:02:09;7.50;;;2.00;;
68577;SDS011;61668;45.388;11.784;2023-05-01T13:04:37;7.80;;;2.00;;
68577;SDS011;61668;45.388;11.784;2023-05-01T13:07:17;6.80;;;1.60;;
68577;SDS011;61668;45.388;11.784;2023-05-01T13:09:54;7.00;;;1.70;;
68577;SDS011;61668;45.388;11.784;2023-05-01T13:12:22;6.20;;;0.90;;
68577;SDS011;61668;45.388;11.784;2023-05-01T13:14:49;8.10;;;1.60;;
68577;SDS011;61668;45.388;11.784;2023-05-01T13:17:26;5.90;;;1.00;;
68577;SDS011;61668;45.388;11.784;2023-05-01T13:19:54;6.20;;;1.00;;
68577;SDS011;61668;45.388;11.784;2023-05-01T13:22:36;5.90;;;1.10;;
68577;SDS011;61668;45.388;11.784;2023-05-01T13:25:17;6.00;;;1.00;;
68577;SDS011;61668;45.388;11.784;2023-05-01T13:27:51;5.70;;;0.90;;
68577;SDS011;61668;45.388;11.784;2023-05-01T13:30:19;6.80;;;1.00;;
68577;SDS011;61668;45.388;11.784;2023-05-01T13:32:46;6.30;;;1.00;;
68577;SDS011;61668;45.388;11.784;2023-05-01T13:35:23;5.00;;;0.70;;
68577;SDS011;61668;45.388;11.784;2023-05-01T13:37:51;5.20;;;0.90;;
68577;SDS011;61668;45.388;11.784;2023-05-01T13:40:18;6.30;;;1.30;;
68577;SDS011;61668;45.388;11.784;2023-05-01T13:42:45;5.30;;;1.20;;
68577;SDS011;61668;45.388;11.784;2023-05-01T13:45:11;5.70;;;1.40;;
68577;SDS011;61668;45.388;11.784;2023-05-01T13:47:41;5.80;;;1.10;;
68577;SDS011;61668;45.388;11.784;2023-05-01T13:50:13;5.80;;;1.20;;
68577;SDS011;61668;45.388;11.784;2023-05-01T13:52:41;6.10;;;1.20;;
68577;SDS011;61668;45.388;11.784;2023-05-01T13:55:09;7.20;;;1.30;;
68577;SDS011;61668;45.388;11.784;2023-05-01T13:57:38;6.30;;;1.20;;
68577;SDS011;61668;45.388;11.784;2023-05-01T14:00:13;7.20;;;1.40;;
68577;SDS011;61668;45.388;11.784;2023-05-01T14:02:47;7.00;;;1.20;;
68577;SDS011;61668;45.388;11.784;2023-05-01T14:05:23;7.60;;;1.90;;
68577;SDS011;61668;45.388;11.784;2023-05-01T14:07:54;7.20;;;1.50;;
68577;SDS011;61668;45.388;11.784;2023-05-01T14:10:22;6.20;;;1.10;;
68577;SDS011;61668;45.388;11.784;2023-05-01T14:12:48;7.50;;;1.30;;
68577;SDS011;61668;45.388;11.784;2023-05-01T14:15:16;5.90;;;1.30;;
68577;SDS011;61668;45.388;11.784;2023-05-01T14:17:42;5.80;;;1.10;;
68577;SDS011;61668;45.388;11.784;2023-05-01T14:20:09;5.70;;;1.30;;
68577;SDS011;61668;45.388;11.784;2023-05-01T14:22:43;7.00;;;1.20;;
68577;SDS011;61668;45.388;11.784;2023-05-01T14:25:30;6.60;;;1.40;;
68577;SDS011;61668;45.388;11.784;2023-05-01T14:28:00;6.60;;;1.20;;
68577;SDS011;61668;45.388;11.784;2023-05-01T14:30:31;5.80;;;1.60;;
68577;SDS011;61668;45.388;11.784;2023-05-01T14:33:05;6.00;;;1.10;;
68577;SDS011;61668;45.388;11.784;2023-05-01T14:35:34;7.10;;;1.20;;
68577;SDS011;61668;45.388;11.784;2023-05-01T14:38:13;5.90;;;1.10;;
68577;SDS011;61668;45.388;11.784;2023-05-01T14:40:41;6.00;;;1.50;;
68577;SDS011;61668;45.388;11.784;2023-05-01T14:43:19;6.20;;;1.40;;
68577;SDS011;61668;45.388;11.784;2023-05-01T14:45:48;6.70;;;1.30;;
68577;SDS011;61668;45.388;11.784;2023-05-01T14:48:22;5.30;;;0.90;;
68577;SDS011;61668;45.388;11.784;2023-05-01T14:50:49;6.30;;;0.90;;
68577;SDS011;61668;45.388;11.784;2023-05-01T14:53:15;6.10;;;1.00;;
68577;SDS011;61668;45.388;11.784;2023-05-01T14:55:41;6.40;;;1.10;;
68577;SDS011;61668;45.388;11.784;2023-05-01T14:58:09;5.40;;;1.00;;
68577;SDS011;61668;45.388;11.784;2023-05-01T15:00:34;5.60;;;1.00;;
68577;SDS011;61668;45.388;11.784;2023-05-01T15:03:01;6.20;;;1.30;;
68577;SDS011;61668;45.388;11.784;2023-05-01T15:05:27;6.80;;;0.90;;
68577;SDS011;61668;45.388;11.784;2023-05-01T15:07:54;5.30;;;1.00;;
68577;SDS011;61668;45.388;11.784;2023-05-01T15:10:25;7.30;;;1.10;;
68577;SDS011;61668;45.388;11.784;2023-05-01T15:12:52;6.10;;;1.40;;
68577;SDS011;61668;45.388;11.784;2023-05-01T15:15:18;7.40;;;1.10;;
68577;SDS011;61668;45.388;11.784;2023-05-01T15:17:43;5.50;;;0.80;;
68577;SDS011;61668;45.388;11.784;2023-05-01T15:20:10;6.30;;;0.80;;
68577;SDS011;61668;45.388;11.784;2023-05-01T15:22:37;5.60;;;0.90;;